Rogersville, Canada
Current Conditions -  °F | °C
As of 11:14 PM on Friday 28 Nov 2014 (Local Time) from CYQM Reporting Station
Snow Showers Snow Showers  
Wind Chill: 10°   Ceiling: 3900
Heat Index: 19°   Visibility: 15mi
Dew Point: 16°   Wind: 7mph
Humidity: 86%   Direction: 280°W
Pressure: 30"   Gusts: NA
Location:  46.72°N, 65.42°W
Report Text: CYQM 290314Z 28006KT 15SM -SHSN SCT007 BKN039 BKN240 M07/M09 A3000 RMK SF3SC3CI1 SLP163
Loading
Personal Weather Stations






























Interactive Weather Map New forecast layout! Learn more

10-Day Weather Forecast

Advertisements
Track Severe Weather on mobile